Flight Track Log - Related Links

Times and Time Zones

All times are in EDT time to prevent confusion due to time zone crossing. See the SWA1017 flight status page for this flight to view local times or setup timezone preferences in your user account.

Time Position Orientation Groundspeed Altitude Reporting Facility
EDT Latitude Longitude Course Direction KTS MPH feet Rate Location/Type
Fri 03:00:01 PM 26.2375 -97.6589 359° North 147 169 600  Level Houston Center
Fri 03:01:11 PM 26.2917 -97.6594 359° North 173 199 2,700 1,630 Climbing Houston Center
Fri 03:01:33 PM 26.3136 -97.6603 358° North 206 237 3,100 387 Climbing Houston Center
Fri 03:02:13 PM 26.3561 -97.6589 North 226 260 3,100  Level Houston Center
Fri 03:02:33 PM 26.3806 -97.6583 North 240 276 3,100 1,839 Level Houston Center
Fri 03:03:15 PM 26.4294 -97.6514 North 251 289 5,000 2,942 Climbing Houston Center
Fri 03:04:17 PM 26.4953 -97.6428 North 251 289 8,200 2,758 Climbing Houston Center
Fri 03:05:19 PM 26.5831 -97.6297 North 296 341 10,700 2,903 Climbing Houston Center
Fri 03:06:21 PM 26.6844 -97.6147 North 363 418 14,200 3,387 Climbing Houston Center
Fri 03:07:23 PM 26.7981 -97.5992 North 386 444 17,700 2,928 Climbing Houston Center
Fri 03:08:26 PM 26.9067 -97.5842 North 393 452 20,300 2,448 Climbing Houston Center
Fri 03:09:28 PM 27.0336 -97.5675 North 425 489 22,800 2,226 Climbing Houston Center
Fri 03:10:30 PM 27.1544 -97.5622 North 409 471 24,900 1,984 Climbing Houston Center
Fri 03:11:32 PM 27.2697 -97.6019 343° North 433 498 26,900 2,081 Climbing Houston Center
Fri 03:12:34 PM 27.3861 -97.6425 343° North 437 503 29,200 2,476 Climbing Houston Center
Fri 03:13:38 PM 27.4969 -97.6828 342° North 427 491 32,100 2,160 Climbing Houston Center
Fri 03:14:39 PM 27.6039 -97.7217 342° North 411 473 33,700 1,805 Climbing Houston Center
Fri 03:15:41 PM 27.7372 -97.7683 343° North 416 479 35,800 1,113 Climbing Houston Center
Fri 03:16:43 PM 27.8461 -97.8092 342° North 416 479 36,000 97 Climbing Houston Center
Fri 03:17:45 PM 27.9536 -97.8461 343° North 409 471 36,000  Level Houston Center
Fri 03:18:47 PM 28.0608 -97.8853 342° North 408 470 36,000  Level Houston Center
Fri 03:19:49 PM 28.1667 -97.9225 343° North 404 465 36,000  Level Houston Center
Fri 03:20:51 PM 28.2772 -97.9636 342° North 409 471 36,000  Level Houston Center
Fri 03:21:54 PM 28.4075 -98.0114 342° North 409 471 36,000  Level Houston Center
Fri 03:22:56 PM 28.5144 -98.0478 343° North 403 464 36,000  Level Houston Center
Fri 03:23:58 PM 28.6233 -98.0881 342° North 406 467 36,000  Level Houston Center
Fri 03:25:00 PM 28.7419 -98.1319 342° North 406 467 36,000 -968 Level Houston Center
Fri 03:26:02 PM 28.8589 -98.1731 343° North 405 466 34,000 -2,177 Descending Houston Center
Fri 03:27:04 PM 28.9631 -98.2125 342° North 394 453 31,500 -3,339 Descending Houston Center
Fri 03:28:06 PM 29.0808 -98.2550 342° North 414 476 27,100 -2,880 Descending Houston Center
Fri 03:29:09 PM 29.1925 -98.2947 343° North 417 480 25,500 -1,488 Descending Houston Center
Fri 03:30:11 PM 29.3025 -98.3361 342° North 386 444 24,000 -726 Descending Houston Center
Fri 03:31:13 PM 29.4069 -98.3739 343° North 392 451 24,000 -339 Level Houston Center
Fri 03:32:15 PM 29.5167 -98.4136 343° North 387 445 23,300 -768 Descending Houston Center
Fri 03:33:18 PM 29.5969 -98.4436 342° North 378 435 22,400 -1,016 Descending Houston Center
Fri 03:34:19 PM 29.7144 -98.4114 13° North 387 445 21,200 -1,171 Descending Houston Center
Fri 03:35:21 PM 29.8053 -98.3453 32° Northeast 386 444 20,000 -1,440 Descending Houston Center
Fri 03:36:24 PM 29.8994 -98.2778 32° Northeast 371 427 18,200 -1,559 Descending Houston Center
Fri 03:37:28 PM 29.9836 -98.2169 32° Northeast 357 411 16,700 -1,645 Descending Houston Center
Fri 03:38:28 PM 30.0725 -98.1522 32° Northeast 349 402 14,800 -1,770 Descending Houston Center
Fri 03:39:30 PM 30.1350 -98.0728 48° Northeast 344 396 13,100 -1,790 Descending Houston Center
Fri 03:40:32 PM 30.1958 -97.9969 47° Northeast 325 374 11,100 -1,887 Descending Houston Center
Fri 03:41:34 PM 30.2358 -97.9128 61° Northeast 300 345 9,200 -1,403 Descending Houston Center
Fri 03:42:36 PM 30.2336 -97.8281 92° East 298 343 8,200 -1,056 Descending Houston Center
Fri 03:43:39 PM 30.1703 -97.7753 144° Southeast 282 325 7,000 -960 Descending Houston Center
Fri 03:44:41 PM 30.0986 -97.7678 175° South 263 303 6,200 -1,065 Descending Houston Center
Fri 03:45:43 PM 30.0400 -97.7544 169° South 214 246 4,800 -1,355 Descending Houston Center
Fri 03:46:45 PM 30.0597 -97.7106 63° Northeast 163 188 3,400 -1,258 Descending Houston Center
Fri 03:47:47 PM 30.0944 -97.6850 32° Northeast 156 180 2,200 -919 Descending Houston Center
Fri 03:48:49 PM 30.1297 -97.6739 15° North 142 163 1,500 -484 Descending Houston Center
Fri 03:49:51 PM 30.1714 -97.6744 359° North 138 159 1,200 -290 Descending Houston Center
Fri 03:51:00 PM 30.1833 -97.6667 North  Level FlightAware Approximate
Fri 03:58:00 PM 30.1945 -97.6699 North  Level Estimated

Login

Don't have an account? Register now (free) for customized features, flight alerts, and more!